Kaministiqua — CFN4612 — position and weather

sailwx.info

Track history (hours):
 
Tides and Currents Weather Stations Pressure Air Temp Water Temp Dewpoint Dewpoint Depression Visibility Wind Speed Wind Dir Waves Ship Positions

Kaministiqua

Last reported at 2015-May-29 07:15 UTC. Time now 2015-May-29 08:15 UTC.
Position N 46°57' W 085°19'.

Length 223 m; draft 7.6 m.

Type: Cargo ship. MMSI: 316009457.

Date/timePositionNaut miles runAvg speedWind from/ knotsBaromVisibWave heightAir tempDewpointWater temp
2015-May-29 07:15N 46°57' W 085°19'  
2015-May-24 04:26N 42°26' W 080°14'1112.5
2015-May-24 03:33N 42°30' W 079°60'2412.1
2015-May-24 01:32N 42°40' W 079°29'164 7.0
2015-May-23 02:13N 44°09' W 076°20'119 8.0
2015-May-22 11:22N 45°14' W 073°60'5 6.1
2015-May-22 10:33N 45°18' W 073°56'1 1.0
2015-May-22 09:33N 45°19' W 073°55'5 4.6
2015-May-22 08:33N 45°22' W 073°50'8 8.0
2015-May-22 07:33N 45°24' W 073°39'4 3.6
2015-May-22 06:33N 45°24' W 073°34'  
2015-May-19 12:15N 45°28' W 073°30'4 5.1
2015-May-19 11:30N 45°24' W 073°33'1 1.5
2015-May-19 10:33N 45°24' W 073°35'4 4.2
2015-May-19 09:33N 45°25' W 073°41'9 9.3
2015-May-19 08:33N 45°21' W 073°52'3 2.9
2015-May-19 07:33N 45°19' W 073°55'  
Track history (hours):
 
Tides and Currents Weather Stations Pressure Air Temp Water Temp Dewpoint Dewpoint Depression Visibility Wind Speed Wind Dir Waves Ship Positions

Kaministiqua

Last reported at 2015-May-29 07:15 UTC. Time now 2015-May-29 08:15 UTC.
Position N 46°57' W 085°19'.

Length 223 m; draft 7.6 m.

Type: Cargo ship. MMSI: 316009457.

Date/timePositionNaut miles runAvg speedWind from/ knotsBaromVisibWave heightAir tempDewpointWater temp
2015-May-29 07:15N 46°57' W 085°19'  
2015-May-24 04:26N 42°26' W 080°14'1112.5
2015-May-24 03:33N 42°30' W 079°60'2412.1
2015-May-24 01:32N 42°40' W 079°29'164 7.0
2015-May-23 02:13N 44°09' W 076°20'119 8.0
2015-May-22 11:22N 45°14' W 073°60'5 6.1
2015-May-22 10:33N 45°18' W 073°56'1 1.0
2015-May-22 09:33N 45°19' W 073°55'5 4.6
2015-May-22 08:33N 45°22' W 073°50'8 8.0
2015-May-22 07:33N 45°24' W 073°39'4 3.6
2015-May-22 06:33N 45°24' W 073°34'  
2015-May-19 12:15N 45°28' W 073°30'4 5.1
2015-May-19 11:30N 45°24' W 073°33'1 1.5
2015-May-19 10:33N 45°24' W 073°35'4 4.2
2015-May-19 09:33N 45°25' W 073°41'9 9.3
2015-May-19 08:33N 45°21' W 073°52'3 2.9
2015-May-19 07:33N 45°19' W 073°55'  

Dump ship's entire track history